createdAt,value
2022-10-07T00:00:53.879Z,27.37
2022-10-07T00:01:56.576Z,27.83
2022-10-07T00:02:58.304Z,27.47
2022-10-07T00:04:00.005Z,27.37
2022-10-07T00:05:01.702Z,27.84
2022-10-07T00:06:13.384Z,27.44
2022-10-07T00:07:15.159Z,27.47
2022-10-07T00:08:16.900Z,27.66
2022-10-07T00:09:18.582Z,27.54
2022-10-07T00:10:20.268Z,27.64
2022-10-07T00:11:25.109Z,27.49
2022-10-07T00:12:27.134Z,27.84
2022-10-07T00:13:28.842Z,27.55
2022-10-07T00:14:30.546Z,27.48
2022-10-07T00:15:32.278Z,27.63
2022-10-07T00:16:37.176Z,27.94
2022-10-07T00:17:39.139Z,27.87
2022-10-07T00:18:41.878Z,27.43
2022-10-07T00:19:43.567Z,27.59
2022-10-07T00:20:45.324Z,27.51
2022-10-07T00:21:47.287Z,27.57
2022-10-07T00:22:49.044Z,27.49
2022-10-07T00:23:51.325Z,27.67
2022-10-07T00:24:53.082Z,27.47
2022-10-07T00:25:54.775Z,27.95
2022-10-07T00:26:56.499Z,28.00
2022-10-07T00:27:59.180Z,27.79
2022-10-07T00:29:01.751Z,27.49
2022-10-07T00:30:03.746Z,27.71
2022-10-07T00:31:09.021Z,27.33
2022-10-07T00:32:10.980Z,27.55
2022-10-07T00:33:12.662Z,27.47
2022-10-07T00:34:14.576Z,27.82
2022-10-07T00:35:19.248Z,27.65
2022-10-07T00:36:26.150Z,27.61
2022-10-07T00:37:28.540Z,27.71
2022-10-07T00:38:30.271Z,27.54
2022-10-07T00:39:32.019Z,27.50
2022-10-07T00:40:35.024Z,27.62
2022-10-07T00:41:39.966Z,27.62
2022-10-07T00:42:42.922Z,27.41
2022-10-07T00:43:44.820Z,27.48
2022-10-07T00:44:48.612Z,27.47
2022-10-07T00:45:51.431Z,27.67
2022-10-07T00:46:55.401Z,27.93
2022-10-07T00:47:57.174Z,27.45
2022-10-07T00:49:03.113Z,27.80
2022-10-07T00:50:10.906Z,27.75
2022-10-07T00:51:17.201Z,27.50
2022-10-07T00:52:21.824Z,27.84
2022-10-07T00:53:27.902Z,27.39
2022-10-07T00:54:29.815Z,27.36
2022-10-07T00:55:32.484Z,27.84
2022-10-07T00:56:35.101Z,27.78
2022-10-07T00:57:37.723Z,27.77
2022-10-07T00:58:42.261Z,27.80
2022-10-07T00:59:44.112Z,27.50
2022-10-07T01:00:46.625Z,28.15
2022-10-07T01:01:48.340Z,27.86
2022-10-07T01:02:50.704Z,27.53
2022-10-07T01:03:53.533Z,27.60
2022-10-07T01:04:59.074Z,27.67
2022-10-07T01:06:00.928Z,27.75
2022-10-07T01:07:02.861Z,27.47
2022-10-07T01:08:04.917Z,27.92
2022-10-07T01:09:08.862Z,27.67
2022-10-07T01:10:12.086Z,27.50
2022-10-07T01:11:39.420Z,27.68
2022-10-07T01:12:57.477Z,27.49
2022-10-07T01:14:29.574Z,27.16
2022-10-07T01:16:23.858Z,27.26
2022-10-07T01:17:32.910Z,27.40
2022-10-07T01:18:43.626Z,27.49
2022-10-07T01:20:27.081Z,27.50
2022-10-07T01:21:31.560Z,27.11
2022-10-07T01:22:57.969Z,27.21
2022-10-07T01:24:38.859Z,27.38
2022-10-07T01:25:49.617Z,27.11
2022-10-07T01:26:57.891Z,27.39
2022-10-07T01:28:09.684Z,27.43
2022-10-07T01:29:13.192Z,27.76
2022-10-07T01:30:15.281Z,27.74
2022-10-07T01:31:22.950Z,27.39
2022-10-07T01:32:36.861Z,27.81
2022-10-07T01:33:41.651Z,27.89
2022-10-07T01:34:46.628Z,27.40
2022-10-07T01:35:51.919Z,27.89
2022-10-07T01:36:58.288Z,27.68
2022-10-07T01:38:05.986Z,27.68
2022-10-07T01:39:14.268Z,28.00
2022-10-07T01:40:21.763Z,27.42
2022-10-07T01:41:24.366Z,27.36
2022-10-07T01:42:28.095Z,27.64
2022-10-07T01:43:32.217Z,27.91
2022-10-07T01:44:34.664Z,27.49
2022-10-07T01:45:41.414Z,27.50
2022-10-07T01:46:43.578Z,27.64
2022-10-07T01:47:46.159Z,27.24
2022-10-07T01:48:48.322Z,27.46
2022-10-07T01:49:51.536Z,27.48
2022-10-07T01:50:54.253Z,27.77
2022-10-07T01:52:14.141Z,27.87
2022-10-07T01:53:22.580Z,27.30
2022-10-07T01:54:44.452Z,27.53
2022-10-07T01:56:24.421Z,27.67
2022-10-07T01:57:52.928Z,26.91
2022-10-07T01:59:12.047Z,27.53
2022-10-07T02:00:15.285Z,27.11
2022-10-07T02:01:22.949Z,27.06
2022-10-07T02:02:48.078Z,27.12
2022-10-07T02:03:50.713Z,27.68
2022-10-07T02:05:09.070Z,27.24
2022-10-07T02:06:15.708Z,27.76
2022-10-07T02:07:21.086Z,27.41
2022-10-07T02:08:30.586Z,27.44
2022-10-07T02:09:46.004Z,27.59
2022-10-07T02:11:14.047Z,27.46
2022-10-07T02:12:25.704Z,27.28
2022-10-07T02:14:04.111Z,27.30
2022-10-07T02:15:16.896Z,27.71
2022-10-07T02:16:25.733Z,27.45
2022-10-07T02:17:34.242Z,27.55
2022-10-07T02:18:39.729Z,27.47
2022-10-07T02:19:46.281Z,27.27
2022-10-07T02:20:52.091Z,27.32
2022-10-07T02:21:58.383Z,27.72
2022-10-07T02:23:02.627Z,27.57
2022-10-07T02:24:05.492Z,27.89
2022-10-07T02:25:10.023Z,27.52
2022-10-07T02:26:15.528Z,27.75
2022-10-07T02:27:23.560Z,27.83
2022-10-07T02:28:28.855Z,27.50
2022-10-07T02:29:37.048Z,27.47
2022-10-07T02:30:40.407Z,27.43
2022-10-07T02:31:45.093Z,27.59
2022-10-07T02:32:57.049Z,27.67
2022-10-07T02:34:01.939Z,27.62
2022-10-07T02:35:13.301Z,27.59
2022-10-07T02:36:22.374Z,27.73
2022-10-07T02:37:29.915Z,27.41
2022-10-07T02:38:31.816Z,27.72
2022-10-07T02:39:34.177Z,27.50
2022-10-07T02:40:41.723Z,27.60
2022-10-07T02:41:50.367Z,27.49
2022-10-07T02:43:11.210Z,27.73
2022-10-07T02:44:34.203Z,27.92
2022-10-07T02:45:48.989Z,27.22
2022-10-07T02:46:56.866Z,27.74
2022-10-07T02:48:04.850Z,27.69
2022-10-07T02:49:09.803Z,27.56
2022-10-07T02:50:19.174Z,27.56
2022-10-07T02:51:23.865Z,27.60
2022-10-07T02:52:31.641Z,27.58
2022-10-07T02:53:36.496Z,27.51
2022-10-07T02:54:54.477Z,27.82
2022-10-07T02:55:58.260Z,27.38
2022-10-07T02:57:01.402Z,27.52
2022-10-07T02:58:08.758Z,27.83
2022-10-07T02:59:14.376Z,27.92
2022-10-07T03:00:18.986Z,27.77
2022-10-07T03:01:30.804Z,27.76
2022-10-07T03:02:44.800Z,27.41
2022-10-07T03:03:46.738Z,27.41
2022-10-07T03:04:48.847Z,27.79
2022-10-07T03:05:51.309Z,27.30
2022-10-07T03:06:54.423Z,27.85
2022-10-07T03:08:00.570Z,27.54
2022-10-07T03:09:03.210Z,27.65
2022-10-07T03:10:09.086Z,27.88
2022-10-07T03:11:12.257Z,27.59
2022-10-07T03:12:14.015Z,27.59
2022-10-07T03:13:15.795Z,27.50
2022-10-07T03:14:24.854Z,27.65
2022-10-07T03:15:27.551Z,27.49
2022-10-07T03:16:31.286Z,27.67
2022-10-07T03:17:33.056Z,27.61
2022-10-07T03:18:34.805Z,27.77
2022-10-07T03:19:44.017Z,27.62
2022-10-07T03:20:46.197Z,27.66
2022-10-07T03:21:48.077Z,27.66
2022-10-07T03:22:50.397Z,27.40
2022-10-07T03:23:55.639Z,27.72
2022-10-07T03:25:01.386Z,27.64
2022-10-07T03:26:03.129Z,27.55
2022-10-07T03:27:07.794Z,27.77
2022-10-07T03:28:10.682Z,27.59
2022-10-07T03:29:13.891Z,27.67
2022-10-07T03:30:16.100Z,27.58
2022-10-07T03:31:17.925Z,27.47
2022-10-07T03:32:27.372Z,27.80
2022-10-07T03:33:29.304Z,27.45
2022-10-07T03:34:32.183Z,27.91
2022-10-07T03:35:34.846Z,28.00
2022-10-07T03:36:37.027Z,27.23
2022-10-07T03:37:42.006Z,27.48
2022-10-07T03:38:45.010Z,27.65
2022-10-07T03:39:49.218Z,27.82
2022-10-07T03:40:52.243Z,27.43
2022-10-07T03:41:54.204Z,27.80
2022-10-07T03:42:55.952Z,27.43
2022-10-07T03:43:59.349Z,27.59
2022-10-07T03:45:02.400Z,27.89
2022-10-07T03:46:04.311Z,27.63
2022-10-07T03:47:10.732Z,27.58
2022-10-07T03:48:13.105Z,27.93
2022-10-07T03:49:15.335Z,27.36
2022-10-07T03:50:17.168Z,27.69
2022-10-07T03:51:19.078Z,27.22
2022-10-07T03:52:20.891Z,27.53
2022-10-07T03:53:22.970Z,27.64
2022-10-07T03:54:24.748Z,27.32
2022-10-07T03:55:26.484Z,27.69
2022-10-07T03:56:28.198Z,27.40
2022-10-07T03:57:48.397Z,27.46
2022-10-07T03:58:50.264Z,27.42
2022-10-07T03:59:53.719Z,27.23
2022-10-07T04:01:15.193Z,27.83
2022-10-07T04:02:27.952Z,27.30
2022-10-07T04:03:30.784Z,27.52
2022-10-07T04:04:32.735Z,27.96
2022-10-07T04:05:36.262Z,27.63
2022-10-07T04:06:38.966Z,27.33
2022-10-07T04:07:49.175Z,27.69
2022-10-07T04:08:55.331Z,27.64
2022-10-07T04:09:57.303Z,27.42
2022-10-07T04:11:02.131Z,27.62
2022-10-07T04:12:05.061Z,27.70
2022-10-07T04:13:06.832Z,27.70
2022-10-07T04:14:08.920Z,27.82
2022-10-07T04:15:14.079Z,28.08
2022-10-07T04:16:18.901Z,28.00
2022-10-07T04:17:23.698Z,27.76
2022-10-07T04:18:25.599Z,27.56
2022-10-07T04:19:28.679Z,27.73
2022-10-07T04:20:30.418Z,27.41
2022-10-07T04:21:32.521Z,27.71
2022-10-07T04:22:34.278Z,27.62
2022-10-07T04:23:36.608Z,27.19
2022-10-07T04:24:38.520Z,27.64
2022-10-07T04:25:47.221Z,27.58
2022-10-07T04:26:52.563Z,27.79
2022-10-07T04:27:56.416Z,27.38
2022-10-07T04:29:00.190Z,27.76
2022-10-07T04:30:03.860Z,27.71
2022-10-07T04:31:08.965Z,27.63
2022-10-07T04:32:14.560Z,27.55
2022-10-07T04:33:16.641Z,27.65
2022-10-07T04:34:18.366Z,27.75
2022-10-07T04:35:21.823Z,27.87
2022-10-07T04:36:25.418Z,27.55
2022-10-07T04:37:35.182Z,27.26
2022-10-07T04:38:36.925Z,27.51
2022-10-07T04:39:59.743Z,27.74
2022-10-07T04:41:05.751Z,27.71
2022-10-07T04:42:28.889Z,27.46
2022-10-07T04:43:33.972Z,27.62
2022-10-07T04:44:48.124Z,27.50
2022-10-07T04:45:53.761Z,27.80
2022-10-07T04:46:56.947Z,27.20
2022-10-07T04:48:02.608Z,27.72
2022-10-07T04:49:05.330Z,27.57
2022-10-07T04:50:07.981Z,27.42
2022-10-07T04:51:10.360Z,27.65
2022-10-07T04:52:14.071Z,27.85
2022-10-07T04:53:19.812Z,27.52
2022-10-07T04:54:21.968Z,27.61
2022-10-07T04:55:28.397Z,27.57
2022-10-07T04:56:31.449Z,27.70
2022-10-07T04:57:34.391Z,27.68
2022-10-07T04:58:36.410Z,27.40
2022-10-07T04:59:42.648Z,27.81
2022-10-07T05:00:49.261Z,27.52
2022-10-07T05:01:52.362Z,27.70
2022-10-07T05:02:54.231Z,27.65
2022-10-07T05:03:58.194Z,27.96
2022-10-07T05:05:01.091Z,27.38
2022-10-07T05:06:05.760Z,27.61
2022-10-07T05:07:10.555Z,27.61
2022-10-07T05:08:14.534Z,27.33
2022-10-07T05:09:16.569Z,27.44
2022-10-07T05:10:21.839Z,27.77
2022-10-07T05:11:23.898Z,27.51
2022-10-07T05:12:32.011Z,27.31
2022-10-07T05:13:34.502Z,27.33
2022-10-07T05:14:37.108Z,27.50
2022-10-07T05:15:57.887Z,27.69
2022-10-07T05:17:00.032Z,27.17
2022-10-07T05:18:07.212Z,27.03
2022-10-07T05:19:10.604Z,27.48
2022-10-07T05:20:13.609Z,27.47
2022-10-07T05:21:15.443Z,27.35
2022-10-07T05:22:20.281Z,27.55
2022-10-07T05:23:28.074Z,27.52
2022-10-07T05:24:33.123Z,27.46
2022-10-07T05:25:36.201Z,27.10
2022-10-07T05:26:38.077Z,27.00
2022-10-07T05:27:42.476Z,26.67
2022-10-07T05:28:45.755Z,27.09
2022-10-07T05:29:50.698Z,26.70
2022-10-07T05:31:01.628Z,26.60
2022-10-07T05:32:05.229Z,26.53
2022-10-07T05:33:10.033Z,26.60
2022-10-07T05:34:13.734Z,26.59
2022-10-07T05:35:15.676Z,26.44
2022-10-07T05:36:17.924Z,26.46
2022-10-07T05:37:19.737Z,26.58
2022-10-07T05:38:22.440Z,26.46
2022-10-07T05:39:24.179Z,26.32
2022-10-07T05:40:38.959Z,26.45
2022-10-07T05:41:45.618Z,26.56
2022-10-07T05:42:51.009Z,26.05
2022-10-07T05:43:52.945Z,26.17
2022-10-07T05:44:54.754Z,26.10
2022-10-07T05:46:05.376Z,26.47
2022-10-07T05:47:09.860Z,26.18
2022-10-07T05:48:11.777Z,26.10
2022-10-07T05:49:13.551Z,26.12
2022-10-07T05:50:16.621Z,26.34
2022-10-07T05:51:22.822Z,26.03
2022-10-07T05:52:25.092Z,25.80
2022-10-07T05:53:28.689Z,25.76
2022-10-07T05:54:32.999Z,26.15
2022-10-07T05:55:40.021Z,25.88
2022-10-07T05:56:41.910Z,26.14
2022-10-07T05:57:44.039Z,25.81
2022-10-07T05:58:47.706Z,25.89
2022-10-07T05:59:50.192Z,25.86
2022-10-07T06:00:54.881Z,26.08
2022-10-07T06:01:57.643Z,25.90
2022-10-07T06:03:02.405Z,25.66
2022-10-07T06:04:08.049Z,26.06
2022-10-07T06:05:14.655Z,25.68
2022-10-07T06:06:17.406Z,25.52
2022-10-07T06:07:22.026Z,25.53
2022-10-07T06:08:28.281Z,26.17
2022-10-07T06:09:51.688Z,25.83
2022-10-07T06:11:12.207Z,25.91
2022-10-07T06:12:32.735Z,25.54
2022-10-07T06:13:38.257Z,25.57
2022-10-07T06:14:40.309Z,25.66
2022-10-07T06:15:42.971Z,25.58
2022-10-07T06:16:45.127Z,25.39
2022-10-07T06:17:47.991Z,25.69
2022-10-07T06:18:55.061Z,25.52
2022-10-07T06:19:59.064Z,25.80
2022-10-07T06:21:02.139Z,25.79
2022-10-07T06:22:05.396Z,25.80
2022-10-07T06:23:09.398Z,26.03
2022-10-07T06:24:11.354Z,25.92
2022-10-07T06:25:13.311Z,25.97
2022-10-07T06:26:15.279Z,25.76
2022-10-07T06:27:17.373Z,25.65
2022-10-07T06:28:19.966Z,25.91
2022-10-07T06:29:22.483Z,25.79
2022-10-07T06:30:25.866Z,25.59
2022-10-07T06:31:28.929Z,25.98
2022-10-07T06:32:35.985Z,25.79
2022-10-07T06:33:38.449Z,25.98
2022-10-07T06:34:40.303Z,25.66
2022-10-07T06:35:42.107Z,25.67
2022-10-07T06:36:43.867Z,25.71
2022-10-07T06:37:45.857Z,25.65
2022-10-07T06:38:49.837Z,25.60
2022-10-07T06:39:58.681Z,25.71
2022-10-07T06:41:04.493Z,25.99
2022-10-07T06:42:08.286Z,25.77
2022-10-07T06:43:12.860Z,25.83
2022-10-07T06:44:20.164Z,26.08
2022-10-07T06:45:22.006Z,26.17
2022-10-07T06:46:25.864Z,25.60
2022-10-07T06:47:27.902Z,25.71
2022-10-07T06:48:32.990Z,25.69
2022-10-07T06:49:34.912Z,25.69
2022-10-07T06:50:36.727Z,25.54
2022-10-07T06:51:38.722Z,26.13
2022-10-07T06:52:43.433Z,26.06
2022-10-07T06:53:46.331Z,25.71
2022-10-07T06:54:48.251Z,26.09
2022-10-07T06:56:00.156Z,25.83
2022-10-07T06:57:20.385Z,25.61
2022-10-07T06:58:27.071Z,25.98
2022-10-07T06:59:30.109Z,25.72
2022-10-07T07:00:39.807Z,25.66
2022-10-07T07:01:41.883Z,26.13
2022-10-07T07:02:44.683Z,25.84
2022-10-07T07:03:46.932Z,26.15
2022-10-07T07:04:51.948Z,25.86
2022-10-07T07:05:56.539Z,25.77
2022-10-07T07:07:03.491Z,26.10
2022-10-07T07:08:05.830Z,25.80
2022-10-07T07:09:07.689Z,25.83
2022-10-07T07:10:12.536Z,26.29
2022-10-07T07:11:37.014Z,25.90
2022-10-07T07:12:47.843Z,26.08
2022-10-07T07:13:50.012Z,25.71
2022-10-07T07:14:52.536Z,26.23
2022-10-07T07:15:57.632Z,25.92
2022-10-07T07:17:00.773Z,26.20
2022-10-07T07:18:04.332Z,26.26
2022-10-07T07:19:08.863Z,26.27
2022-10-07T07:20:11.783Z,25.81
2022-10-07T07:21:13.755Z,25.94
2022-10-07T07:22:15.478Z,25.89
2022-10-07T07:23:18.217Z,26.21
2022-10-07T07:24:20.264Z,26.50
2022-10-07T07:25:22.850Z,25.74
2022-10-07T07:26:25.478Z,25.95
2022-10-07T07:27:27.514Z,26.05
2022-10-07T07:28:31.607Z,26.26
2022-10-07T07:29:33.684Z,26.13
2022-10-07T07:30:39.168Z,25.91
2022-10-07T07:31:41.332Z,26.20
2022-10-07T07:32:43.985Z,26.39
2022-10-07T07:33:52.278Z,26.18
2022-10-07T07:34:55.892Z,25.94
2022-10-07T07:35:57.842Z,26.25
2022-10-07T07:36:59.725Z,26.38
2022-10-07T07:38:08.608Z,26.52
2022-10-07T07:39:13.652Z,26.82
2022-10-07T07:40:17.735Z,26.34
2022-10-07T07:41:22.210Z,26.42
2022-10-07T07:42:24.611Z,26.49
2022-10-07T07:43:26.353Z,26.51
2022-10-07T07:44:34.002Z,26.26
2022-10-07T07:45:38.229Z,26.10
2022-10-07T07:46:47.750Z,26.41
2022-10-07T07:47:50.279Z,26.45
2022-10-07T07:48:54.237Z,26.62
2022-10-07T07:49:55.949Z,26.28
2022-10-07T07:51:06.731Z,26.24
2022-10-07T07:52:09.791Z,26.25
2022-10-07T07:53:16.392Z,26.39
2022-10-07T07:54:19.096Z,26.33
2022-10-07T07:55:23.761Z,26.28
2022-10-07T07:56:26.344Z,26.46
2022-10-07T07:57:29.877Z,25.79
2022-10-07T07:58:35.905Z,26.14
2022-10-07T07:59:37.762Z,26.42
2022-10-07T08:00:40.856Z,26.47
2022-10-07T08:01:45.420Z,26.37
2022-10-07T08:02:48.765Z,26.64
2022-10-07T08:03:53.547Z,26.62
2022-10-07T08:04:55.344Z,26.55
2022-10-07T08:06:02.166Z,26.58
2022-10-07T08:07:05.336Z,26.53
2022-10-07T08:08:07.326Z,26.55
2022-10-07T08:09:09.530Z,26.49
2022-10-07T08:10:12.743Z,26.51
2022-10-07T08:11:17.447Z,26.79
2022-10-07T08:12:22.273Z,26.18
2022-10-07T08:13:26.381Z,26.24
2022-10-07T08:14:28.225Z,26.10
2022-10-07T08:15:30.358Z,26.30
2022-10-07T08:16:32.666Z,26.48
2022-10-07T08:17:35.363Z,26.30
2022-10-07T08:18:39.074Z,26.38
2022-10-07T08:19:40.931Z,26.31
2022-10-07T08:20:43.744Z,26.18
2022-10-07T08:21:45.546Z,26.49
2022-10-07T08:22:55.665Z,26.63
2022-10-07T08:24:04.004Z,26.57
2022-10-07T08:25:08.905Z,26.53
2022-10-07T08:26:10.931Z,26.22
2022-10-07T08:27:13.385Z,26.70
2022-10-07T08:28:15.903Z,26.68
2022-10-07T08:29:19.528Z,26.63
2022-10-07T08:30:21.332Z,26.66
2022-10-07T08:31:28.345Z,26.68
2022-10-07T08:32:31.152Z,26.84
2022-10-07T08:33:35.954Z,26.60
2022-10-07T08:34:37.750Z,26.79
2022-10-07T08:35:40.059Z,26.77
2022-10-07T08:36:47.282Z,26.62
2022-10-07T08:37:49.413Z,26.84
2022-10-07T08:38:52.036Z,26.98
2022-10-07T08:39:53.743Z,26.56
2022-10-07T08:40:55.693Z,26.95
2022-10-07T08:42:08.620Z,26.76
2022-10-07T08:43:10.451Z,26.57
2022-10-07T08:44:16.396Z,26.51
2022-10-07T08:45:29.547Z,26.64
2022-10-07T08:46:35.519Z,26.38
2022-10-07T08:47:44.219Z,26.37
2022-10-07T08:48:53.948Z,26.42
2022-10-07T08:50:18.073Z,26.41
2022-10-07T08:51:30.877Z,26.42
2022-10-07T08:52:41.649Z,26.57
2022-10-07T08:53:44.668Z,26.68
2022-10-07T08:54:46.691Z,26.79
2022-10-07T08:56:01.515Z,26.53
2022-10-07T08:57:16.217Z,26.47
2022-10-07T08:58:43.511Z,26.26
2022-10-07T08:59:50.458Z,26.69
2022-10-07T09:01:01.401Z,26.42
2022-10-07T09:02:21.506Z,26.24
2022-10-07T09:03:52.386Z,26.22
2022-10-07T09:04:58.247Z,26.17
2022-10-07T09:06:08.599Z,26.53
2022-10-07T09:07:21.493Z,26.55
2022-10-07T09:08:36.441Z,26.79
2022-10-07T09:09:53.743Z,27.05
2022-10-07T09:11:02.473Z,26.65
2022-10-07T09:12:22.852Z,26.81
2022-10-07T09:13:27.102Z,26.90
2022-10-07T09:14:47.038Z,27.03
2022-10-07T09:16:00.759Z,26.77
2022-10-07T09:17:10.880Z,27.37
2022-10-07T09:18:31.968Z,27.32
2022-10-07T09:19:39.543Z,26.83
2022-10-07T09:20:45.781Z,27.08
2022-10-07T09:21:51.565Z,27.21
2022-10-07T09:22:57.438Z,27.24
2022-10-07T09:24:24.828Z,27.19
2022-10-07T09:25:29.673Z,26.98
2022-10-07T09:26:31.370Z,27.43
2022-10-07T09:27:33.591Z,27.42
2022-10-07T09:28:37.136Z,27.16
2022-10-07T09:29:39.108Z,27.16
2022-10-07T09:30:42.431Z,27.39
2022-10-07T09:31:44.249Z,27.30
2022-10-07T09:32:48.596Z,27.52
2022-10-07T09:33:53.129Z,27.29
2022-10-07T09:34:55.033Z,27.43
2022-10-07T09:36:08.345Z,27.58
2022-10-07T09:37:21.095Z,27.66
2022-10-07T09:38:41.052Z,27.68
2022-10-07T09:39:44.617Z,27.53
2022-10-07T09:41:30.364Z,27.24
2022-10-07T09:42:38.750Z,27.25
2022-10-07T09:43:50.891Z,27.71
2022-10-07T09:44:55.444Z,27.49
2022-10-07T09:45:58.822Z,27.96
2022-10-07T09:47:17.207Z,27.93
2022-10-07T09:48:22.046Z,27.89
2022-10-07T09:49:29.474Z,27.66
2022-10-07T09:50:39.671Z,27.82
2022-10-07T09:51:41.588Z,28.09
2022-10-07T09:52:55.675Z,28.18
2022-10-07T09:54:06.328Z,28.17
2022-10-07T09:55:26.926Z,28.06
2022-10-07T09:56:47.852Z,28.20
2022-10-07T09:58:00.860Z,27.93
2022-10-07T09:59:21.387Z,27.95
2022-10-07T10:00:26.532Z,27.95
2022-10-07T10:01:28.486Z,28.13
2022-10-07T10:02:31.102Z,27.85
2022-10-07T10:03:37.928Z,28.49
2022-10-07T10:04:53.304Z,28.22
2022-10-07T10:05:57.894Z,28.48
2022-10-07T10:07:06.380Z,28.55
2022-10-07T10:08:23.046Z,28.15
2022-10-07T10:09:26.108Z,28.28
2022-10-07T10:10:33.945Z,28.62
2022-10-07T10:11:35.782Z,28.66
2022-10-07T10:12:46.570Z,28.23
2022-10-07T10:13:50.736Z,28.35
2022-10-07T10:14:59.486Z,28.56
2022-10-07T10:16:03.426Z,28.69
2022-10-07T10:17:05.367Z,28.68
2022-10-07T10:18:22.461Z,28.58
2022-10-07T10:19:26.699Z,28.85
2022-10-07T10:20:36.755Z,28.50
2022-10-07T10:21:42.150Z,28.81
2022-10-07T10:22:44.211Z,28.60
2022-10-07T10:23:49.605Z,29.02
2022-10-07T10:25:10.517Z,29.00
2022-10-07T10:26:32.457Z,28.52
2022-10-07T10:27:59.929Z,29.00
2022-10-07T10:29:04.733Z,28.56
2022-10-07T10:30:12.633Z,28.98
2022-10-07T10:31:29.891Z,28.63
2022-10-07T10:32:32.248Z,28.55
2022-10-07T10:33:53.364Z,29.03
2022-10-07T10:35:19.787Z,28.79
2022-10-07T10:36:27.232Z,29.08
2022-10-07T10:37:41.234Z,29.17
2022-10-07T10:39:01.781Z,29.15
2022-10-07T10:40:33.144Z,28.80
2022-10-07T10:41:40.435Z,28.91
2022-10-07T10:42:51.304Z,28.94
2022-10-07T10:44:20.231Z,29.36
2022-10-07T10:45:49.278Z,28.83
2022-10-07T10:47:03.896Z,28.73
2022-10-07T10:48:23.832Z,29.11
2022-10-07T10:49:36.392Z,29.00
2022-10-07T10:50:55.772Z,29.09
2022-10-07T10:52:18.243Z,29.24
2022-10-07T10:53:34.472Z,29.44
2022-10-07T10:54:51.244Z,29.42
2022-10-07T10:56:21.060Z,29.32
2022-10-07T10:57:59.988Z,29.04
2022-10-07T10:59:17.188Z,28.80
2022-10-07T11:00:23.386Z,29.26
2022-10-07T11:01:34.572Z,29.03
2022-10-07T11:02:39.107Z,29.11
2022-10-07T11:04:04.717Z,29.36
2022-10-07T11:05:34.508Z,29.00
2022-10-07T11:06:38.332Z,29.06
2022-10-07T11:07:46.306Z,29.37
2022-10-07T11:08:52.122Z,29.55
2022-10-07T11:10:16.855Z,29.32
2022-10-07T11:11:22.140Z,29.63
2022-10-07T11:12:26.759Z,29.08
2022-10-07T11:13:46.972Z,29.63
2022-10-07T11:14:57.827Z,29.31
2022-10-07T11:16:25.974Z,29.11
2022-10-07T11:17:32.304Z,29.35
2022-10-07T11:18:49.447Z,29.33
2022-10-07T11:20:04.468Z,29.22
2022-10-07T11:21:12.720Z,29.60
2022-10-07T11:22:23.894Z,29.59
2022-10-07T11:23:32.796Z,29.72
2022-10-07T11:24:37.820Z,29.63
2022-10-07T11:26:01.940Z,29.80
2022-10-07T11:27:15.036Z,29.63
2022-10-07T11:28:24.495Z,29.31
2022-10-07T11:29:31.555Z,29.42
2022-10-07T11:30:43.562Z,29.43
2022-10-07T11:31:54.961Z,29.46
2022-10-07T11:33:05.810Z,29.44
2022-10-07T11:34:23.081Z,29.39
2022-10-07T11:35:29.926Z,29.62
2022-10-07T11:36:48.680Z,29.43
2022-10-07T11:38:14.808Z,29.23
2022-10-07T11:39:16.596Z,29.73
2022-10-07T11:40:19.669Z,29.26
2022-10-07T11:41:32.389Z,29.59
2022-10-07T11:42:43.119Z,29.56
2022-10-07T11:43:53.836Z,29.76
2022-10-07T11:45:00.319Z,29.71
2022-10-07T11:46:17.293Z,29.47
2022-10-07T11:47:24.559Z,29.80
2022-10-07T11:48:41.068Z,29.65
2022-10-07T11:49:51.698Z,29.66
2022-10-07T11:50:59.870Z,29.43
2022-10-07T11:52:12.082Z,29.71
2022-10-07T11:53:24.317Z,29.79
2022-10-07T11:54:30.705Z,29.70
2022-10-07T11:55:44.235Z,29.98
2022-10-07T11:56:51.626Z,29.93
2022-10-07T11:57:56.660Z,30.17
2022-10-07T11:59:04.897Z,29.63
2022-10-07T12:00:22.572Z,30.12
2022-10-07T12:01:30.678Z,29.87
2022-10-07T12:02:38.467Z,29.62
2022-10-07T12:03:40.466Z,29.99
2022-10-07T12:04:42.517Z,29.78
2022-10-07T12:05:50.154Z,30.00
2022-10-07T12:07:29.621Z,29.65
2022-10-07T12:08:34.604Z,29.80
2022-10-07T12:09:56.033Z,29.89
2022-10-07T12:11:12.537Z,30.04
2022-10-07T12:12:14.348Z,29.79
2022-10-07T12:13:17.352Z,30.10
2022-10-07T12:14:42.270Z,29.71
2022-10-07T12:15:45.069Z,29.93
2022-10-07T12:16:54.736Z,30.00
2022-10-07T12:18:05.678Z,29.73
2022-10-07T12:19:07.646Z,30.07
2022-10-07T12:20:51.052Z,30.18
2022-10-07T12:22:05.048Z,29.59
2022-10-07T12:23:28.609Z,29.84
2022-10-07T12:24:46.660Z,29.69
2022-10-07T12:25:52.150Z,29.98
2022-10-07T12:26:56.350Z,30.28
2022-10-07T12:27:58.486Z,30.35
2022-10-07T12:29:00.503Z,30.30
2022-10-07T12:30:02.793Z,30.10
2022-10-07T12:31:27.303Z,30.50
2022-10-07T12:32:51.210Z,30.07
2022-10-07T12:33:53.543Z,29.81
2022-10-07T12:34:55.703Z,30.33
2022-10-07T12:35:57.471Z,30.20
2022-10-07T12:37:44.465Z,30.29
2022-10-07T12:39:09.746Z,30.11
2022-10-07T12:40:20.344Z,30.55
2022-10-07T12:41:44.150Z,30.34
2022-10-07T12:43:11.063Z,30.35
2022-10-07T12:44:25.275Z,30.27
2022-10-07T12:45:28.891Z,30.23
2022-10-07T12:46:38.721Z,30.46
2022-10-07T12:47:43.038Z,30.41
2022-10-07T12:49:03.246Z,30.31
2022-10-07T12:50:13.450Z,30.45
2022-10-07T12:51:27.051Z,30.58
2022-10-07T12:52:52.102Z,30.41
2022-10-07T12:53:55.877Z,30.10
2022-10-07T12:55:02.645Z,30.22
2022-10-07T12:56:05.757Z,30.63
2022-10-07T12:57:20.000Z,30.67
2022-10-07T12:59:02.830Z,30.46
2022-10-07T13:00:08.340Z,30.45
2022-10-07T13:01:29.877Z,30.80
2022-10-07T13:03:03.469Z,30.63
2022-10-07T13:04:43.152Z,30.47
2022-10-07T13:05:58.596Z,30.19
2022-10-07T13:07:46.278Z,30.42
2022-10-07T13:09:13.819Z,30.61
2022-10-07T13:10:21.471Z,30.62
2022-10-07T13:12:01.532Z,30.68
2022-10-07T13:13:21.109Z,30.40
2022-10-07T13:14:53.384Z,30.57
2022-10-07T13:16:01.301Z,30.40
2022-10-07T13:17:30.321Z,30.86
2022-10-07T13:18:32.082Z,30.97
2022-10-07T13:19:36.622Z,30.97
2022-10-07T13:20:46.698Z,30.94
2022-10-07T13:22:13.313Z,30.78
2022-10-07T13:23:21.966Z,30.83
2022-10-07T13:24:28.463Z,31.14
2022-10-07T13:25:31.788Z,31.04
2022-10-07T13:26:33.555Z,31.08
2022-10-07T13:27:38.674Z,31.23
2022-10-07T13:28:51.739Z,30.90
2022-10-07T13:29:56.088Z,30.83
2022-10-07T13:31:12.450Z,31.17
2022-10-07T13:32:18.010Z,31.32
2022-10-07T13:33:30.362Z,30.93
2022-10-07T13:34:32.880Z,31.28
2022-10-07T13:35:39.694Z,31.34
2022-10-07T13:36:45.751Z,31.00
2022-10-07T13:37:48.207Z,30.96
2022-10-07T13:39:11.267Z,30.94
2022-10-07T13:40:28.328Z,30.68
2022-10-07T13:41:30.739Z,31.20
2022-10-07T13:42:33.239Z,31.23
2022-10-07T13:43:37.503Z,31.21
2022-10-07T13:44:43.908Z,31.32
2022-10-07T13:45:47.201Z,31.13
2022-10-07T13:46:52.153Z,31.44
2022-10-07T13:47:54.980Z,31.21
2022-10-07T13:48:57.561Z,31.15
2022-10-07T13:50:01.093Z,31.29
2022-10-07T13:51:03.105Z,31.19
2022-10-07T13:52:07.918Z,31.36
2022-10-07T13:53:26.180Z,31.24
2022-10-07T13:54:31.024Z,31.36
2022-10-07T13:55:34.922Z,30.95
2022-10-07T13:56:46.081Z,30.91
2022-10-07T13:57:48.053Z,30.84
2022-10-07T13:58:54.068Z,31.12
2022-10-07T13:59:56.635Z,31.17
2022-10-07T14:00:58.826Z,31.08
2022-10-07T14:02:01.436Z,31.21
2022-10-07T14:03:13.795Z,31.35
2022-10-07T14:04:15.520Z,31.06
2022-10-07T14:05:28.635Z,31.34
2022-10-07T14:06:56.378Z,31.29
2022-10-07T14:08:00.341Z,31.07
2022-10-07T14:09:02.231Z,31.04
2022-10-07T14:10:10.074Z,31.06
2022-10-07T14:11:21.485Z,30.77
2022-10-07T14:12:50.488Z,31.38
2022-10-07T14:13:52.646Z,31.02
2022-10-07T14:14:59.480Z,30.92
2022-10-07T14:16:01.402Z,31.35
2022-10-07T14:17:18.297Z,31.24
2022-10-07T14:18:20.117Z,31.20
2022-10-07T14:19:21.853Z,31.58
2022-10-07T14:20:36.805Z,31.66
2022-10-07T14:21:41.803Z,31.14
2022-10-07T14:22:57.384Z,31.40
2022-10-07T14:24:08.741Z,31.37
2022-10-07T14:25:27.915Z,31.37
2022-10-07T14:26:43.540Z,31.20
2022-10-07T14:28:05.642Z,31.30
2022-10-07T14:29:31.124Z,31.00
2022-10-07T14:30:57.616Z,31.21
2022-10-07T14:32:29.165Z,30.72
2022-10-07T14:34:10.303Z,31.02
2022-10-07T14:35:20.886Z,30.99
2022-10-07T14:36:23.146Z,31.58
2022-10-07T14:37:30.966Z,31.29